Terminal Aerodrome Forecast
Issued by NWS

Current Version | Previous Version | Text Only | Print | Product List | Glossary Off
Versions: 1 2 3 4 5 6 7 8 9 10 11 12 13 14 15 16 17 18 19 20 21 22 23 24 25 26 27 28 29 30 31 32 33

000
FTUS44 KSJT 221700
TAFSOA
TAF
KSOA 221728Z 2218/2318 30011KT P6SM SCT150 SCT250
     FM230000 VRB04KT P6SM BKN250
     FM231000 VRB04KT P6SM VCSH BKN070 BKN150
     FM231500 01008KT P6SM VCSH BKN015=

USA.gov is the U.S. government's official web portal to all federal, state and local government web resources and services.